createdAt,value
2023-04-10T00:02:04.725Z,10.03
2023-04-10T00:06:16.118Z,9.30
2023-04-10T00:10:26.885Z,10.57
2023-04-10T00:19:52.697Z,10.60
2023-04-10T00:24:16.319Z,10.93
2023-04-10T00:28:32.144Z,11.87
2023-04-10T00:37:32.994Z,11.10
2023-04-10T00:41:57.571Z,12.77
2023-04-10T00:50:39.638Z,10.90
2023-04-10T00:55:20.568Z,11.70
2023-04-10T00:59:41.452Z,9.80
2023-04-10T01:04:17.854Z,10.77
2023-04-10T01:09:26.018Z,10.77
2023-04-10T01:24:05.472Z,12.20
2023-04-10T01:43:22.696Z,10.70
2023-04-10T01:57:38.666Z,10.07
2023-04-10T02:02:45.396Z,9.30
2023-04-10T02:12:00.942Z,10.17
2023-04-10T02:16:42.704Z,9.90
2023-04-10T02:20:53.314Z,8.50
2023-04-10T02:25:25.697Z,10.23
2023-04-10T02:29:48.516Z,10.50
2023-04-10T02:33:54.171Z,9.23
2023-04-10T02:38:01.130Z,10.43
2023-04-10T02:42:24.102Z,10.73
2023-04-10T02:46:36.199Z,9.80
2023-04-10T02:50:47.145Z,10.10
2023-04-10T02:54:59.887Z,10.33
2023-04-10T02:59:09.546Z,9.80
2023-04-10T03:03:15.958Z,10.77
2023-04-10T03:07:31.487Z,11.90
2023-04-10T03:11:38.268Z,11.57
2023-04-10T03:15:49.262Z,10.20
2023-04-10T03:20:03.388Z,11.77
2023-04-10T03:24:12.449Z,11.27
2023-04-10T03:28:17.493Z,10.83
2023-04-10T03:32:21.352Z,11.93
2023-04-10T03:36:32.296Z,11.57
2023-04-10T03:40:36.112Z,11.07
2023-04-10T03:44:50.389Z,12.50
2023-04-10T03:48:58.324Z,11.13
2023-04-10T03:53:12.635Z,12.07
2023-04-10T03:57:20.154Z,11.17
2023-04-10T04:01:27.143Z,11.40
2023-04-10T04:05:46.729Z,11.77
2023-04-10T04:10:18.953Z,12.17
2023-04-10T04:14:35.489Z,12.30
2023-04-10T04:19:07.810Z,11.60
2023-04-10T04:23:21.602Z,11.87
2023-04-10T04:28:00.150Z,12.20
2023-04-10T04:32:24.372Z,12.97
2023-04-10T04:36:43.891Z,11.93
2023-04-10T04:40:53.479Z,13.57
2023-04-10T04:45:21.954Z,12.20
2023-04-10T04:49:56.641Z,12.43
2023-04-10T04:54:24.593Z,14.53
2023-04-10T04:58:48.960Z,17.53
2023-04-10T05:03:16.254Z,14.13
2023-04-10T05:07:36.358Z,14.70
2023-04-10T05:12:14.281Z,13.60
2023-04-10T05:16:33.623Z,12.40
2023-04-10T05:21:02.355Z,13.57
2023-04-10T05:25:33.985Z,16.73
2023-04-10T05:29:48.195Z,12.70
2023-04-10T05:34:15.286Z,11.77
2023-04-10T05:38:38.861Z,14.33
2023-04-10T05:43:07.699Z,12.23
2023-04-10T05:47:30.854Z,13.60
2023-04-10T05:52:00.387Z,20.57
2023-04-10T05:56:18.225Z,15.73
2023-04-10T06:00:37.328Z,13.23
2023-04-10T06:04:59.767Z,24.83
2023-04-10T06:09:04.775Z,17.03
2023-04-10T06:13:11.923Z,11.17
2023-04-10T06:17:15.948Z,10.70
2023-04-10T06:21:20.083Z,9.00
2023-04-10T06:25:26.872Z,16.37
2023-04-10T06:29:32.620Z,10.13
2023-04-10T06:33:37.190Z,10.37
2023-04-10T06:37:46.553Z,27.63
2023-04-10T06:41:53.401Z,9.27
2023-04-10T06:46:20.256Z,10.17
2023-04-10T06:50:23.919Z,11.87
2023-04-10T06:54:27.725Z,9.50
2023-04-10T06:58:32.589Z,9.73
2023-04-10T07:02:38.024Z,10.13
2023-04-10T07:06:42.102Z,16.37
2023-04-10T07:10:45.799Z,11.87
2023-04-10T07:14:49.844Z,9.77
2023-04-10T07:18:57.719Z,14.60
2023-04-10T07:23:01.455Z,10.37
2023-04-10T07:27:05.796Z,14.87
2023-04-10T07:31:11.076Z,11.63
2023-04-10T07:35:17.611Z,10.43
2023-04-10T07:39:21.933Z,14.13
2023-04-10T07:43:25.700Z,10.93
2023-04-10T07:47:30.234Z,11.07
2023-04-10T07:51:36.159Z,11.07
2023-04-10T07:55:41.407Z,12.33
2023-04-10T07:59:46.687Z,11.73
2023-04-10T08:03:50.603Z,13.43
2023-04-10T08:07:57.590Z,17.47
2023-04-10T08:12:02.852Z,13.03
2023-04-10T08:16:07.086Z,13.93
2023-04-10T08:20:12.314Z,14.33
2023-04-10T08:24:19.877Z,15.40
2023-04-10T08:28:23.637Z,17.27
2023-04-10T08:32:28.533Z,20.00
2023-04-10T08:36:32.986Z,16.83
2023-04-10T08:40:40.684Z,15.60
2023-04-10T08:44:44.406Z,15.53
2023-04-10T08:48:50.686Z,17.30
2023-04-10T08:52:58.202Z,15.83
2023-04-10T08:57:05.671Z,14.50
2023-04-10T09:01:12.239Z,15.37
2023-04-10T09:05:16.741Z,20.27
2023-04-10T09:09:21.417Z,14.80
2023-04-10T09:13:40.681Z,16.97
2023-04-10T09:17:58.411Z,16.93
2023-04-10T09:22:04.424Z,13.97
2023-04-10T09:26:25.625Z,14.17
2023-04-10T09:30:43.209Z,16.13
2023-04-10T09:34:59.011Z,15.23
2023-04-10T09:39:04.084Z,13.20
2023-04-10T09:43:20.305Z,13.20
2023-04-10T09:47:27.779Z,13.37
2023-04-10T09:51:32.818Z,13.67
2023-04-10T09:55:37.775Z,11.97
2023-04-10T09:59:44.517Z,12.23
2023-04-10T10:03:50.185Z,14.43
2023-04-10T10:07:54.044Z,13.63
2023-04-10T10:11:57.911Z,13.17
2023-04-10T10:16:11.664Z,13.43
2023-04-10T10:20:21.128Z,13.00
2023-04-10T10:24:27.964Z,15.27
2023-04-10T10:28:35.355Z,12.87
2023-04-10T10:32:41.917Z,12.57
2023-04-10T10:36:50.752Z,14.17
2023-04-10T10:41:10.899Z,14.87
2023-04-10T10:45:19.077Z,13.93
2023-04-10T10:49:22.848Z,13.10
2023-04-10T10:53:44.678Z,14.10
2023-04-10T10:57:49.149Z,13.27
2023-04-10T11:02:15.941Z,13.00
2023-04-10T11:06:21.635Z,12.70
2023-04-10T11:11:07.460Z,16.70
2023-04-10T11:15:12.716Z,12.70
2023-04-10T11:19:19.189Z,13.50
2023-04-10T11:23:24.867Z,13.63
2023-04-10T11:27:44.190Z,12.97
2023-04-10T11:31:56.968Z,12.50
2023-04-10T11:36:02.976Z,12.87
2023-04-10T11:40:07.785Z,12.13
2023-04-10T11:44:13.399Z,11.63
2023-04-10T11:48:19.265Z,10.63
2023-04-10T11:52:26.599Z,11.10
2023-04-10T11:56:30.448Z,9.97
2023-04-10T12:00:34.680Z,9.53
2023-04-10T12:04:40.301Z,9.30
2023-04-10T12:08:46.350Z,10.63
2023-04-10T12:12:50.121Z,9.97
2023-04-10T12:16:55.009Z,11.50
2023-04-10T12:21:01.221Z,10.37
2023-04-10T12:25:06.212Z,9.97
2023-04-10T12:29:10.841Z,10.00
2023-04-10T12:33:15.515Z,9.20
2023-04-10T12:37:21.211Z,9.80
2023-04-10T12:41:26.580Z,9.60
2023-04-10T12:45:45.164Z,8.40
2023-04-10T12:50:08.648Z,8.57
2023-04-10T12:54:13.814Z,8.93
2023-04-10T12:58:19.261Z,8.87
2023-04-10T13:02:25.072Z,7.40
2023-04-10T13:06:29.528Z,8.73
2023-04-10T13:10:34.712Z,7.77
2023-04-10T13:14:38.195Z,8.70
2023-04-10T13:18:41.735Z,8.50
2023-04-10T13:22:45.737Z,8.90
2023-04-10T13:26:51.581Z,8.00
2023-04-10T13:30:55.386Z,9.17
2023-04-10T13:35:04.968Z,7.80
2023-04-10T13:39:36.282Z,8.80
2023-04-10T13:43:48.904Z,7.77
2023-04-10T13:47:56.452Z,7.73
2023-04-10T13:52:02.087Z,8.07
2023-04-10T13:56:14.492Z,9.40
2023-04-10T14:00:21.468Z,8.80
2023-04-10T14:04:25.978Z,8.67
2023-04-10T14:08:30.652Z,7.93
2023-04-10T14:12:36.260Z,8.50
2023-04-10T14:16:43.053Z,8.20
2023-04-10T14:20:48.040Z,8.37
2023-04-10T14:25:05.276Z,8.13
2023-04-10T14:29:18.181Z,8.47
2023-04-10T14:33:29.699Z,7.53
2023-04-10T14:37:34.810Z,7.57
2023-04-10T14:41:38.674Z,7.30
2023-04-10T14:45:42.242Z,8.83
2023-04-10T14:49:48.365Z,7.50
2023-04-10T14:54:04.681Z,7.23
2023-04-10T14:58:11.649Z,7.27
2023-04-10T15:02:15.496Z,7.13
2023-04-10T15:06:20.621Z,6.93
2023-04-10T15:10:25.642Z,7.07
2023-04-10T15:14:30.593Z,7.93
2023-04-10T15:18:34.300Z,7.77
2023-04-10T15:22:40.760Z,6.90
2023-04-10T15:26:48.971Z,8.00
2023-04-10T15:30:53.977Z,7.83
2023-04-10T15:35:13.211Z,7.30
2023-04-10T15:39:24.352Z,8.20
2023-04-10T15:43:32.436Z,6.83
2023-04-10T15:47:45.373Z,6.70
2023-04-10T15:51:49.277Z,7.17
2023-04-10T15:55:54.713Z,7.43
2023-04-10T16:00:00.732Z,7.50
2023-04-10T16:04:07.317Z,7.13
2023-04-10T16:08:13.604Z,7.30
2023-04-10T16:12:21.185Z,7.23
2023-04-10T16:16:27.593Z,7.97
2023-04-10T16:20:34.082Z,7.10
2023-04-10T16:24:41.956Z,7.53
2023-04-10T16:28:50.331Z,7.50
2023-04-10T16:32:58.847Z,6.73
2023-04-10T16:37:04.505Z,8.07
2023-04-10T16:41:10.402Z,7.40
2023-04-10T16:45:17.224Z,7.50
2023-04-10T16:49:23.549Z,6.63
2023-04-10T16:53:31.576Z,6.87
2023-04-10T16:57:37.344Z,8.13
2023-04-10T17:01:44.261Z,7.33
2023-04-10T17:05:50.644Z,6.77
2023-04-10T17:09:54.879Z,7.33
2023-04-10T17:14:00.619Z,7.67
2023-04-10T17:18:08.629Z,7.97
2023-04-10T17:22:17.221Z,8.83
2023-04-10T17:26:26.965Z,11.87
2023-04-10T17:30:32.099Z,7.77
2023-04-10T17:34:40.937Z,8.93
2023-04-10T17:38:57.526Z,8.47
2023-04-10T17:43:05.780Z,10.37
2023-04-10T17:47:21.500Z,7.97
2023-04-10T17:51:32.146Z,8.90
2023-04-10T17:55:42.265Z,8.77
2023-04-10T17:59:47.944Z,8.80
2023-04-10T18:03:53.579Z,8.83
2023-04-10T18:08:00.835Z,8.30
2023-04-10T18:12:06.149Z,9.13
2023-04-10T18:16:13.064Z,9.47
2023-04-10T18:20:24.612Z,9.63
2023-04-10T18:25:03.286Z,10.27
2023-04-10T18:29:13.868Z,10.40
2023-04-10T18:38:56.619Z,10.53
2023-04-10T18:43:21.631Z,10.20
2023-04-10T18:47:38.728Z,11.17
2023-04-10T18:51:45.746Z,11.27
2023-04-10T18:55:57.012Z,10.43
2023-04-10T19:00:09.799Z,10.33
2023-04-10T19:04:21.914Z,11.10
2023-04-10T19:08:32.295Z,12.40
2023-04-10T19:12:41.363Z,11.73
2023-04-10T19:17:43.497Z,11.30
2023-04-10T19:21:56.424Z,9.77
2023-04-10T19:26:08.219Z,10.20
2023-04-10T19:30:31.775Z,10.57
2023-04-10T19:34:43.883Z,9.57
2023-04-10T19:39:10.382Z,9.50
2023-04-10T19:43:21.120Z,12.60
2023-04-10T19:47:31.054Z,13.77
2023-04-10T19:51:41.876Z,13.13
2023-04-10T19:55:55.092Z,12.60
2023-04-10T20:00:12.620Z,12.20
2023-04-10T20:04:18.446Z,11.27
2023-04-10T20:08:29.777Z,10.77
2023-04-10T20:12:49.602Z,11.63
2023-04-10T20:17:25.112Z,10.03
2023-04-10T20:21:32.788Z,10.40
2023-04-10T20:25:57.584Z,9.97
2023-04-10T20:30:13.203Z,10.27
2023-04-10T20:35:12.706Z,11.07
2023-04-10T20:44:21.657Z,9.57
2023-04-10T20:48:48.284Z,9.53
2023-04-10T20:58:20.619Z,11.30
2023-04-10T21:02:48.017Z,10.70
2023-04-10T21:07:01.242Z,11.03
2023-04-10T21:15:35.642Z,12.63
2023-04-10T21:20:01.292Z,12.40
2023-04-10T21:24:29.545Z,12.17
2023-04-10T21:33:03.965Z,11.40
2023-04-10T21:37:16.969Z,11.93
2023-04-10T21:41:48.553Z,11.50
2023-04-10T21:46:01.555Z,11.57
2023-04-10T21:50:13.868Z,10.90
2023-04-10T21:54:54.163Z,13.00
2023-04-10T21:59:08.661Z,13.53
2023-04-10T22:07:48.695Z,13.37
2023-04-10T22:12:14.718Z,13.00
2023-04-10T22:16:32.699Z,12.47
2023-04-10T22:20:50.251Z,12.43
2023-04-10T22:25:24.071Z,13.67
2023-04-10T22:30:04.525Z,10.77
2023-04-10T22:34:29.754Z,11.73
2023-04-10T22:38:36.320Z,13.70
2023-04-10T22:43:02.735Z,12.67
2023-04-10T22:47:29.679Z,13.87
2023-04-10T22:51:39.308Z,12.87
2023-04-10T22:55:50.773Z,12.90
2023-04-10T23:00:23.301Z,12.17
2023-04-10T23:04:52.416Z,14.27
2023-04-10T23:14:04.467Z,12.97
2023-04-10T23:18:48.550Z,13.50
2023-04-10T23:23:20.742Z,15.60
2023-04-10T23:37:01.467Z,15.90
2023-04-10T23:46:30.137Z,14.73
2023-04-10T23:50:43.954Z,14.43
2023-04-10T23:55:10.419Z,14.40
